Aérodrome :
LOGIN :

S'inscrire | Disclaimer

   EN    FR    IT 

 










Légende :    VFR   VFR Marginal   IFR   IFR Intensif   IFR Très Intensif
Visi : 
Plafond : 
>= 8 km
>= 3000ft
5 à 8 km
1000 à 3000 ft
1500m à 5 km
500 à 1000 ft
800 à 1500m
200 à 500 ft
< 800m
< 200 ft
Symboles :   Orages  Brouillard  Fortes neiges  Fortes précipitations  Vent > 20 kt
SIGMETs :   Divers  Orages  Givrage  Turbulence  Onde Orograph.  Cendres Volcan.







- Altitude de l'aérodrome : 17 ft
- Code IATA : STA


EKVJ - Stauning

DERNIER METAR :
  • 220850Z 11006KT 2500 BR BKN005 BKN030 01/01 Q1028

METARs EXPIRÉS :
  • 220750Z 08005KT 1500 BR BKN004 01/01 Q1027
  • 220720Z 06005KT 1500 BR BKN004 01/01 Q1027

TAF TAF EKVJ
Valide du 22 à 08h jusqu'au 22 à 15h UTC


220803Z 2208/2215 08005KT 1500 BR BKN004
BECMG 2209/2211 4000 BKN006
BECMG 2211/2214 FEW015
Pas de NOTAMs connus pour ce terrain.



MET'MAP, la Météo Aéronautique d'un coup d'oeil ! - Copyright ORBIFLY Décembre 2007 - Disclaimer

ORBIFLY MET'MAP TEAM :

Programmation & Développement : Alexandra Zaïnal
Conception & Développement : Baudouin d'Aumeries
Co-Programmation & Développement : Marc-Olivier Méhu
Soutien technique & logistique : Manuel Goepfert

Contact : metmap@orbifly.com




SOURCES & CREDITS :

   NOAA